Olympia Regional Airport
KOLM : now visible

Airfield :











YOU CAN JOIN US ON...

 
LOGIN :

Register | Disclaimer

   EN    FR    IT 

 









Legend :    VFR   Marginal VFR   IFR   Intensive IFR   Very Intensive IFR
Visi :
Ceiling :
>= 8 km
>= 3000ft
5 to 8 km
1000 to 3000 ft
1500m to 5 km
500 to 1000 ft
800 to 1500m
200 to 500 ft
< 800m
< 200 ft
Symbols :   Thunderstorms  Fog  Heavy snow  Heavy precipitations  Wind > 20 kt






- Airport Elevation : 209 ft
- IATA code : OLM


KOLM - Olympia Regional

CURRENT METAR :
  • 210940Z AUTO 19003KT 3SM BR BKN001 09/09 A2996 RMK AO2 T00940089

EXPIRED METARs :
  • 210922Z AUTO 00000KT 3/4SM BR VV001 09/09 A2996 RMK AO2 T00940089
  • 210916Z AUTO 00000KT 4SM BR BKN001 09/08 A2996 RMK AO2 T00890083
  • 210854Z AUTO 00000KT 10SM FEW001 09/08 A2996 RMK AO2 SLP146 T00890083 56005
  • 210827Z AUTO 17004KT 10SM BKN001 09/08 A2997 RMK AO2 T00940083
  • 210815Z AUTO 00000KT 5SM BR FEW001 09/09 A2997 RMK AO2 T00890089
  • 210801Z AUTO 00000KT 1 1/4SM BR FEW001 10/09 A2997 RMK AO2 VIS 1/2V5 T01000094
  • 210741Z AUTO 00000KT 3/4SM BR CLR 10/09 A2997 RMK AO2 T01000089
  • 210716Z AUTO 00000KT 3SM BR CLR 11/10 A2998 RMK AO2 T01060100
  • 210704Z AUTO 00000KT 1 3/4SM BR CLR 11/10 A2998 RMK AO2 T01110100

TAF KOLM
Valid from the 21 at 06:00 until the 22 at 06:00 UTC


210539Z 2106/2206 00000KT P6SM SCT040 SCT200
FM210900 00000KT 1/2SM FG VV001
FM211600 00000KT 4SM BR SCT002 BKN200
FM211800 22004KT P6SM SCT120 BKN200
FM212300 26005KT P6SM BKN120 OVC200
FM220400 20003KT P6SM OVC080
KZSE FIR / North America



MET'MAP, your aeronautical weather chart ! - Copyright ORBIFLY December 2007 - Disclaimer

ORBIFLY MET'MAP TEAM :

Programming & Development : Alexandra Zaïnal
Concept & original design : Baudouin d'Aumeries
Assistance for programming : Marc-Olivier Méhu
Technical & hardware support : Manuel Goepfert

Contact : metmap@orbifly.com




SOURCES & CREDITS :

   NOAA       Earth
Advisory